createdAt,value
2017-07-06T00:01:52.218Z,101497
2017-07-06T00:04:20.753Z,101498
2017-07-06T00:06:49.308Z,101494
2017-07-06T00:09:17.777Z,101500
2017-07-06T00:11:46.326Z,101500
2017-07-06T00:14:14.865Z,101507
2017-07-06T00:16:43.362Z,101503
2017-07-06T00:19:11.873Z,101499
2017-07-06T00:21:40.444Z,101493
2017-07-06T00:24:10.368Z,101494
2017-07-06T00:26:38.893Z,101492
2017-07-06T00:29:07.511Z,101481
2017-07-06T00:31:36.042Z,101492
2017-07-06T00:34:04.663Z,101489
2017-07-06T00:36:33.265Z,101491
2017-07-06T00:39:02.175Z,101494
2017-07-06T00:41:30.727Z,101493
2017-07-06T00:43:59.245Z,101488
2017-07-06T00:46:27.756Z,101490
2017-07-06T00:48:56.241Z,101483
2017-07-06T00:51:25.506Z,101489
2017-07-06T00:53:54.120Z,101501
2017-07-06T00:56:22.837Z,101492
2017-07-06T00:58:51.873Z,101497
2017-07-06T01:01:20.363Z,101501
2017-07-06T01:03:48.914Z,101506
2017-07-06T01:06:17.485Z,101495
2017-07-06T01:08:45.989Z,101494
2017-07-06T01:11:14.447Z,101494
2017-07-06T01:13:42.930Z,101486
2017-07-06T01:16:11.421Z,101492
2017-07-06T01:18:40.231Z,101495
2017-07-06T01:21:08.711Z,101495
2017-07-06T01:23:37.271Z,101493
2017-07-06T01:26:05.987Z,101478
2017-07-06T01:28:34.517Z,101485
2017-07-06T01:31:03.942Z,101488
2017-07-06T01:33:32.537Z,101488
2017-07-06T01:36:01.261Z,101488
2017-07-06T01:38:29.780Z,101492
2017-07-06T01:40:59.379Z,101492
2017-07-06T01:43:27.869Z,101494
2017-07-06T01:45:57.220Z,101484
2017-07-06T01:48:25.761Z,101488
2017-07-06T01:50:54.369Z,101486
2017-07-06T01:53:23.053Z,101489
2017-07-06T01:55:51.868Z,101484
2017-07-06T01:58:20.649Z,101481
2017-07-06T02:00:50.537Z,101477
2017-07-06T02:03:19.109Z,101489
2017-07-06T02:05:47.600Z,101486
2017-07-06T02:08:16.900Z,101495
2017-07-06T02:10:45.427Z,101485
2017-07-06T02:13:13.979Z,101497
2017-07-06T02:15:42.646Z,101493
2017-07-06T02:18:11.186Z,101494
2017-07-06T02:20:39.837Z,101490
2017-07-06T02:23:08.862Z,101486
2017-07-06T02:25:37.950Z,101490
2017-07-06T02:28:06.425Z,101494
2017-07-06T02:30:34.887Z,101499
2017-07-06T02:33:03.492Z,101499
2017-07-06T02:35:32.089Z,101499
2017-07-06T02:38:00.931Z,101504
2017-07-06T02:40:29.429Z,101506
2017-07-06T02:42:57.990Z,101508
2017-07-06T02:45:26.516Z,101500
2017-07-06T02:47:55.393Z,101494
2017-07-06T02:50:24.132Z,101500
2017-07-06T02:52:52.625Z,101499
2017-07-06T02:55:21.090Z,101503
2017-07-06T02:57:49.684Z,101501
2017-07-06T03:00:19.138Z,101505
2017-07-06T03:02:48.014Z,101502
2017-07-06T03:05:17.281Z,101501
2017-07-06T03:07:46.199Z,101501
2017-07-06T03:10:15.138Z,101503
2017-07-06T03:12:43.853Z,101546
2017-07-06T03:15:12.733Z,101511
2017-07-06T03:17:41.285Z,101506
2017-07-06T03:20:09.868Z,101506
2017-07-06T03:22:38.392Z,101503
2017-07-06T03:25:07.370Z,101509
2017-07-06T03:27:35.955Z,101516
2017-07-06T03:30:04.554Z,101509
2017-07-06T03:32:33.027Z,101518
2017-07-06T03:35:01.935Z,101512
2017-07-06T03:37:30.401Z,101518
2017-07-06T03:39:58.978Z,101521
2017-07-06T03:42:27.678Z,101520
2017-07-06T03:44:56.181Z,101519
2017-07-06T03:47:24.985Z,101521
2017-07-06T03:49:53.609Z,101529
2017-07-06T03:52:22.095Z,101525
2017-07-06T03:54:50.699Z,101528
2017-07-06T03:57:19.154Z,101508
2017-07-06T03:59:48.061Z,101518
2017-07-06T04:02:16.698Z,101519
2017-07-06T04:04:45.222Z,101520
2017-07-06T04:07:13.765Z,101519
2017-07-06T04:09:42.240Z,101524
2017-07-06T04:12:10.786Z,101519
2017-07-06T04:14:39.385Z,101526
2017-07-06T04:17:08.322Z,101521
2017-07-06T04:19:36.771Z,101519
2017-07-06T04:22:05.691Z,101525
2017-07-06T04:24:34.529Z,101514
2017-07-06T04:27:03.188Z,101510
2017-07-06T04:29:31.905Z,101516
2017-07-06T04:32:00.511Z,101516
2017-07-06T04:34:29.190Z,101515
2017-07-06T04:36:58.110Z,101513
2017-07-06T04:39:26.668Z,101517
2017-07-06T04:41:55.344Z,101528
2017-07-06T04:44:23.950Z,101520
2017-07-06T04:46:53.135Z,101512
2017-07-06T04:49:21.708Z,101513
2017-07-06T04:51:50.292Z,101512
2017-07-06T04:54:18.790Z,101526
2017-07-06T04:56:47.353Z,101519
2017-07-06T04:59:15.826Z,101522
2017-07-06T05:01:44.346Z,101518
2017-07-06T05:04:13.023Z,101528
2017-07-06T05:06:41.526Z,101524
2017-07-06T05:09:10.075Z,101529
2017-07-06T05:11:39.029Z,101523
2017-07-06T05:14:07.659Z,101525
2017-07-06T05:16:36.130Z,101530
2017-07-06T05:19:04.779Z,101536
2017-07-06T05:21:34.104Z,101527
2017-07-06T05:24:02.790Z,101529
2017-07-06T05:26:31.278Z,101515
2017-07-06T05:29:00.088Z,101524
2017-07-06T05:31:28.861Z,101534
2017-07-06T05:33:57.370Z,101544
2017-07-06T05:36:25.848Z,101551
2017-07-06T05:38:54.358Z,101540
2017-07-06T05:41:23.102Z,101537
2017-07-06T05:43:52.064Z,101534
2017-07-06T05:46:20.544Z,101532
2017-07-06T05:48:49.765Z,101530
2017-07-06T05:51:18.372Z,101537
2017-07-06T05:53:46.874Z,101531
2017-07-06T05:56:15.906Z,101538
2017-07-06T05:58:44.431Z,101543
2017-07-06T06:01:13.072Z,101546
2017-07-06T06:03:41.778Z,101546
2017-07-06T06:06:10.282Z,101563
2017-07-06T06:08:38.886Z,101556
2017-07-06T06:11:07.538Z,101562
2017-07-06T06:13:36.355Z,101559
2017-07-06T06:16:04.849Z,101561
2017-07-06T06:18:33.375Z,101562
2017-07-06T06:21:03.329Z,101562
2017-07-06T06:23:32.008Z,101565
2017-07-06T06:26:00.775Z,101556
2017-07-06T06:28:30.113Z,101545
2017-07-06T06:30:58.732Z,101555
2017-07-06T06:33:27.438Z,101555
2017-07-06T06:35:56.382Z,101559
2017-07-06T06:38:25.580Z,101562
2017-07-06T06:40:54.332Z,101564
2017-07-06T06:43:23.565Z,101560
2017-07-06T06:45:52.349Z,101561
2017-07-06T06:48:21.144Z,101565
2017-07-06T06:50:50.151Z,101552
2017-07-06T06:53:19.473Z,101567
2017-07-06T06:55:48.228Z,101558
2017-07-06T06:58:16.725Z,101556
2017-07-06T07:00:46.819Z,101565
2017-07-06T07:03:18.597Z,101558
2017-07-06T07:05:47.434Z,101562
2017-07-06T07:08:15.959Z,101568
2017-07-06T07:10:44.482Z,101568
2017-07-06T07:13:13.247Z,101574
2017-07-06T07:15:41.810Z,101589
2017-07-06T07:18:10.314Z,101589
2017-07-06T07:20:39.316Z,101598
2017-07-06T07:23:07.994Z,101601
2017-07-06T07:25:36.920Z,101602
2017-07-06T07:28:05.745Z,101601
2017-07-06T07:30:34.374Z,101553
2017-07-06T07:33:03.053Z,101594
2017-07-06T07:35:31.574Z,101597
2017-07-06T07:38:01.082Z,101597
2017-07-06T07:40:30.757Z,101599
2017-07-06T07:42:59.017Z,101599
2017-07-06T07:45:27.398Z,101595
2017-07-06T07:47:55.922Z,101600
2017-07-06T07:50:24.513Z,101601
2017-07-06T07:52:52.421Z,101603
2017-07-06T07:55:20.342Z,101599
2017-07-06T07:57:48.229Z,101601
2017-07-06T08:00:17.366Z,101599
2017-07-06T08:02:45.354Z,101606
2017-07-06T08:05:13.321Z,101604
2017-07-06T08:07:42.238Z,101607
2017-07-06T08:10:10.697Z,101612
2017-07-06T08:12:38.959Z,101599
2017-07-06T08:15:06.861Z,101601
2017-07-06T08:17:34.842Z,101603
2017-07-06T08:20:02.706Z,101606
2017-07-06T08:22:30.940Z,101603
2017-07-06T08:24:58.847Z,101613
2017-07-06T08:27:26.717Z,101613
2017-07-06T08:29:54.681Z,101605
2017-07-06T08:32:22.838Z,101604
2017-07-06T08:34:51.172Z,101607
2017-07-06T08:37:19.089Z,101609
2017-07-06T08:39:47.036Z,101606
2017-07-06T08:42:15.110Z,101613
2017-07-06T08:44:42.975Z,101619
2017-07-06T08:47:11.063Z,101620
2017-07-06T08:49:39.166Z,101609
2017-07-06T08:52:08.531Z,101598
2017-07-06T08:54:36.447Z,101605
2017-07-06T08:57:05.150Z,101599
2017-07-06T08:59:33.163Z,101594
2017-07-06T09:02:01.312Z,101596
2017-07-06T09:04:29.262Z,101585
2017-07-06T09:06:58.189Z,101591
2017-07-06T09:09:26.091Z,101590
2017-07-06T09:11:54.057Z,101599
2017-07-06T09:14:22.255Z,101593
2017-07-06T09:16:50.486Z,101593
2017-07-06T09:19:18.531Z,101585
2017-07-06T09:21:46.529Z,101578
2017-07-06T09:24:18.277Z,101586
2017-07-06T09:26:46.193Z,101577
2017-07-06T09:29:14.134Z,101584
2017-07-06T09:31:42.789Z,101576
2017-07-06T09:34:10.877Z,101576
2017-07-06T09:36:39.698Z,101587
2017-07-06T09:39:08.702Z,101579
2017-07-06T09:41:37.252Z,101595
2017-07-06T09:44:06.221Z,101589
2017-07-06T09:46:34.088Z,101581
2017-07-06T09:49:02.165Z,101586
2017-07-06T09:51:30.068Z,101588
2017-07-06T09:53:58.205Z,101594
2017-07-06T09:56:26.111Z,101592
2017-07-06T09:58:54.369Z,101582
2017-07-06T10:01:22.314Z,101592
2017-07-06T10:03:50.947Z,101581
2017-07-06T10:06:18.894Z,101583
2017-07-06T10:08:46.867Z,101580
2017-07-06T10:11:14.812Z,101574
2017-07-06T10:13:42.757Z,101571
2017-07-06T10:16:10.666Z,101571
2017-07-06T10:18:39.015Z,101564
2017-07-06T10:21:07.849Z,101572
2017-07-06T10:23:36.746Z,101564
2017-07-06T10:26:04.684Z,101562
2017-07-06T10:28:32.576Z,101559
2017-07-06T10:31:00.499Z,101559
2017-07-06T10:33:29.164Z,101553
2017-07-06T10:35:57.304Z,101549
2017-07-06T10:38:25.351Z,101543
2017-07-06T10:40:54.358Z,101548
2017-07-06T10:43:23.019Z,101547
2017-07-06T10:45:51.513Z,101551
2017-07-06T10:48:20.054Z,101560
2017-07-06T10:50:48.613Z,101556
2017-07-06T10:53:17.435Z,101551
2017-07-06T10:55:45.329Z,101559
2017-07-06T10:58:13.263Z,101550
2017-07-06T11:00:42.157Z,101548
2017-07-06T11:03:10.072Z,101559
2017-07-06T11:05:38.342Z,101562
2017-07-06T11:08:06.286Z,101554
2017-07-06T11:10:34.920Z,101548
2017-07-06T11:13:02.972Z,101546
2017-07-06T11:15:30.856Z,101528
2017-07-06T11:17:58.726Z,101542
2017-07-06T11:20:26.622Z,101544
2017-07-06T11:22:54.610Z,101544
2017-07-06T11:25:22.609Z,101538
2017-07-06T11:27:51.288Z,101531
2017-07-06T11:30:19.149Z,101530
2017-07-06T11:32:47.554Z,101528
2017-07-06T11:35:15.637Z,101527
2017-07-06T11:37:43.718Z,101519
2017-07-06T11:40:11.603Z,101515
2017-07-06T11:42:39.465Z,101518
2017-07-06T11:45:07.433Z,101512
2017-07-06T11:47:35.402Z,101508
2017-07-06T11:50:03.302Z,101523
2017-07-06T11:52:31.178Z,101510
2017-07-06T11:54:59.100Z,101506
2017-07-06T11:57:27.457Z,101517
2017-07-06T11:59:55.546Z,101519
2017-07-06T12:02:23.932Z,101516
2017-07-06T12:04:51.850Z,101512
2017-07-06T12:07:20.849Z,101520
2017-07-06T12:09:48.857Z,101512
2017-07-06T12:12:18.906Z,101509
2017-07-06T12:14:46.831Z,101506
2017-07-06T12:17:16.875Z,101510
2017-07-06T12:19:44.838Z,101515
2017-07-06T12:22:12.909Z,101508
2017-07-06T12:24:40.758Z,101508
2017-07-06T12:27:09.599Z,101510
2017-07-06T12:29:38.592Z,101505
2017-07-06T12:32:06.448Z,101506
2017-07-06T12:34:34.688Z,101520
2017-07-06T12:37:02.770Z,101520
2017-07-06T12:39:30.692Z,101505
2017-07-06T12:41:58.659Z,101521
2017-07-06T12:44:27.289Z,101510
2017-07-06T12:46:55.156Z,101513
2017-07-06T12:49:24.503Z,101511
2017-07-06T12:51:52.351Z,101496
2017-07-06T12:54:20.202Z,101507
2017-07-06T12:56:48.049Z,101512
2017-07-06T12:59:16.073Z,101509
2017-07-06T13:01:43.929Z,101515
2017-07-06T13:04:11.877Z,101506
2017-07-06T13:06:39.760Z,101503
2017-07-06T13:09:08.329Z,101497
2017-07-06T13:11:36.249Z,101497
2017-07-06T13:14:04.329Z,101496
2017-07-06T13:16:32.934Z,101497
2017-07-06T13:19:00.923Z,101499
2017-07-06T13:21:28.825Z,101498
2017-07-06T13:23:57.359Z,101501
2017-07-06T13:26:25.881Z,101495
2017-07-06T13:28:53.993Z,101501
2017-07-06T13:31:22.923Z,101495
2017-07-06T13:33:50.898Z,101484
2017-07-06T13:36:19.126Z,101483
2017-07-06T13:38:48.478Z,101478
2017-07-06T13:41:16.368Z,101485
2017-07-06T13:43:44.254Z,101477
2017-07-06T13:46:12.929Z,101468
2017-07-06T13:48:40.881Z,101470
2017-07-06T13:51:08.803Z,101469
2017-07-06T13:53:36.749Z,101461
2017-07-06T13:56:05.147Z,101449
2017-07-06T13:58:34.616Z,101452
2017-07-06T14:01:03.316Z,101444
2017-07-06T14:03:31.281Z,101444
2017-07-06T14:06:31.585Z,101441
2017-07-06T14:09:00.341Z,101440
2017-07-06T14:11:29.076Z,101420
2017-07-06T14:13:57.145Z,101426
2017-07-06T14:16:25.676Z,101432
2017-07-06T14:18:54.210Z,101431
2017-07-06T14:21:23.533Z,101429
2017-07-06T14:23:51.565Z,101422
2017-07-06T14:26:20.496Z,101421
2017-07-06T14:28:49.052Z,101421
2017-07-06T14:31:16.982Z,101425
2017-07-06T14:33:45.016Z,101421
2017-07-06T14:36:13.039Z,101423
2017-07-06T14:38:40.988Z,101419
2017-07-06T14:41:10.443Z,101419
2017-07-06T14:43:39.006Z,101407
2017-07-06T14:46:06.897Z,101399
2017-07-06T14:48:34.936Z,101393
2017-07-06T14:51:07.125Z,101401
2017-07-06T14:53:35.195Z,101405
2017-07-06T14:56:03.080Z,101398
2017-07-06T14:58:31.597Z,101392
2017-07-06T15:00:59.497Z,101384
2017-07-06T15:03:28.018Z,101374
2017-07-06T15:05:56.539Z,101371
2017-07-06T15:08:27.709Z,101363
2017-07-06T15:10:55.737Z,101362
2017-07-06T15:13:24.264Z,101376
2017-07-06T15:15:52.750Z,101366
2017-07-06T15:18:20.664Z,101367
2017-07-06T15:20:48.525Z,101365
2017-07-06T15:23:17.946Z,101364
2017-07-06T15:25:45.949Z,101361
2017-07-06T15:28:13.806Z,101359
2017-07-06T15:30:41.677Z,101349
2017-07-06T15:33:09.985Z,101340
2017-07-06T15:35:38.798Z,101347
2017-07-06T15:38:07.432Z,101338
2017-07-06T15:40:35.529Z,101335
2017-07-06T15:43:03.892Z,101327
2017-07-06T15:45:31.833Z,101320
2017-07-06T15:48:01.714Z,101323
2017-07-06T15:50:30.383Z,101326
2017-07-06T15:52:58.915Z,101326
2017-07-06T15:55:27.758Z,101316
2017-07-06T15:57:56.278Z,101313
2017-07-06T16:00:25.348Z,101302
2017-07-06T16:02:53.917Z,101306
2017-07-06T16:05:22.684Z,101306
2017-07-06T16:07:52.388Z,101299
2017-07-06T16:10:20.936Z,101289
2017-07-06T16:12:49.463Z,101294
2017-07-06T16:15:18.119Z,101275
2017-07-06T16:17:46.667Z,101278
2017-07-06T16:20:16.619Z,101271
2017-07-06T16:22:45.977Z,101282
2017-07-06T16:25:14.591Z,101282
2017-07-06T16:27:43.167Z,101275
2017-07-06T16:30:11.793Z,101275
2017-07-06T16:32:41.124Z,101283
2017-07-06T16:35:10.147Z,101278
2017-07-06T16:37:38.918Z,101282
2017-07-06T16:40:07.893Z,101281
2017-07-06T16:42:36.593Z,101279
2017-07-06T16:45:05.304Z,101279
2017-07-06T16:47:33.903Z,101275
2017-07-06T16:50:02.464Z,101255
2017-07-06T16:52:30.978Z,101261
2017-07-06T16:54:59.659Z,101261
2017-07-06T16:57:28.226Z,101262
2017-07-06T16:59:57.161Z,101266
2017-07-06T17:02:26.413Z,101258
2017-07-06T17:04:55.591Z,101260
2017-07-06T17:07:30.869Z,101249
2017-07-06T17:09:59.817Z,101251
2017-07-06T17:12:28.723Z,101259
2017-07-06T17:14:59.129Z,101251
2017-07-06T17:17:27.839Z,101243
2017-07-06T17:19:56.669Z,101245
2017-07-06T17:22:25.208Z,101252
2017-07-06T17:24:54.161Z,101246
2017-07-06T17:27:23.612Z,101239
2017-07-06T17:29:53.867Z,101252
2017-07-06T17:32:22.528Z,101244
2017-07-06T17:34:51.259Z,101238
2017-07-06T17:37:20.957Z,101238
2017-07-06T17:39:49.707Z,101237
2017-07-06T17:42:18.732Z,101232
2017-07-06T17:44:47.283Z,101236
2017-07-06T17:47:15.816Z,101233
2017-07-06T17:49:44.458Z,101225
2017-07-06T17:52:13.208Z,101222
2017-07-06T17:54:41.823Z,101224
2017-07-06T17:57:10.601Z,101218
2017-07-06T17:59:39.194Z,101223
2017-07-06T18:02:07.884Z,101228
2017-07-06T18:04:36.539Z,101233
2017-07-06T18:07:05.671Z,101227
2017-07-06T18:09:34.282Z,101235
2017-07-06T18:12:03.246Z,101218
2017-07-06T18:14:31.915Z,101218
2017-07-06T18:17:00.622Z,101210
2017-07-06T18:19:30.465Z,101211
2017-07-06T18:21:59.236Z,101204
2017-07-06T18:24:28.012Z,101210
2017-07-06T18:26:58.035Z,101213
2017-07-06T18:29:26.569Z,101210
2017-07-06T18:32:00.442Z,101212
2017-07-06T18:34:29.007Z,101204
2017-07-06T18:36:57.741Z,101204
2017-07-06T18:39:26.451Z,101219
2017-07-06T18:41:54.943Z,101209
2017-07-06T18:44:23.850Z,101202
2017-07-06T18:46:52.545Z,101204
2017-07-06T18:49:21.312Z,101203
2017-07-06T18:51:50.199Z,101203
2017-07-06T18:54:19.245Z,101203
2017-07-06T18:56:50.946Z,101208
2017-07-06T18:59:19.882Z,101212
2017-07-06T19:01:48.556Z,101203
2017-07-06T19:04:17.741Z,101219
2017-07-06T19:06:46.440Z,101223
2017-07-06T19:09:14.958Z,101220
2017-07-06T19:11:44.123Z,101218
2017-07-06T19:14:12.681Z,101222
2017-07-06T19:16:41.193Z,101220
2017-07-06T19:19:10.099Z,101211
2017-07-06T19:21:38.813Z,101216
2017-07-06T19:24:08.375Z,101223
2017-07-06T19:26:37.469Z,101227
2017-07-06T19:29:06.131Z,101218
2017-07-06T19:31:34.679Z,101215
2017-07-06T19:34:03.247Z,101219
2017-07-06T19:36:31.822Z,101220
2017-07-06T19:39:00.398Z,101221
2017-07-06T19:41:29.575Z,101214
2017-07-06T19:43:58.220Z,101213
2017-07-06T19:46:26.841Z,101213
2017-07-06T19:48:55.339Z,101218
2017-07-06T19:51:23.970Z,101223
2017-07-06T19:53:53.258Z,101220
2017-07-06T19:56:21.827Z,101218
2017-07-06T19:58:50.461Z,101209
2017-07-06T20:01:20.540Z,101204
2017-07-06T20:05:18.814Z,101219
2017-07-06T20:07:47.464Z,101212
2017-07-06T20:10:16.150Z,101210
2017-07-06T20:12:44.772Z,101210
2017-07-06T20:15:13.340Z,101206
2017-07-06T20:17:41.907Z,101215
2017-07-06T20:20:10.469Z,101207
2017-07-06T20:22:39.516Z,101211
2017-07-06T20:25:08.062Z,101206
2017-07-06T20:27:37.477Z,101194
2017-07-06T20:30:06.599Z,101200
2017-07-06T20:32:35.103Z,101196
2017-07-06T20:35:03.671Z,101194
2017-07-06T20:37:32.189Z,101195
2017-07-06T20:40:00.745Z,101181
2017-07-06T20:42:29.519Z,101183
2017-07-06T20:44:58.529Z,101172
2017-07-06T20:47:31.557Z,101182
2017-07-06T20:50:01.098Z,101180
2017-07-06T20:52:29.717Z,101183
2017-07-06T20:54:58.279Z,101183
2017-07-06T20:57:26.861Z,101180
2017-07-06T20:59:55.446Z,101176
2017-07-06T21:02:24.234Z,101181
2017-07-06T21:04:52.925Z,101169
2017-07-06T21:07:21.527Z,101177
2017-07-06T21:09:50.723Z,101208
2017-07-06T21:12:19.247Z,101174
2017-07-06T21:14:49.651Z,101169
2017-07-06T21:17:18.392Z,101167
2017-07-06T21:19:48.430Z,101159
2017-07-06T21:22:17.165Z,101148
2017-07-06T21:24:45.770Z,101155
2017-07-06T21:27:14.366Z,101141
2017-07-06T21:29:45.438Z,101030
2017-07-06T21:32:14.347Z,101142
2017-07-06T21:34:42.882Z,101155
2017-07-06T21:37:11.466Z,101153
2017-07-06T21:39:40.110Z,101149
2017-07-06T21:42:08.772Z,101158
2017-07-06T21:44:38.142Z,101162
2017-07-06T21:47:06.867Z,101162
2017-07-06T21:49:35.415Z,101163
2017-07-06T21:52:04.026Z,101169
2017-07-06T21:54:32.535Z,101166
2017-07-06T21:57:01.371Z,101164
2017-07-06T21:59:30.004Z,101159
2017-07-06T22:01:58.543Z,101159
2017-07-06T22:04:27.258Z,101164
2017-07-06T22:06:55.806Z,101161
2017-07-06T22:09:24.527Z,101163
2017-07-06T22:11:53.074Z,101166
2017-07-06T22:14:21.690Z,101166
2017-07-06T22:16:50.462Z,101170
2017-07-06T22:19:19.009Z,101169
2017-07-06T22:21:47.991Z,101165
2017-07-06T22:24:16.855Z,101162
2017-07-06T22:26:45.416Z,101159
2017-07-06T22:29:13.952Z,101167
2017-07-06T22:31:42.507Z,101165
2017-07-06T22:34:11.058Z,101166
2017-07-06T22:36:39.624Z,101165
2017-07-06T22:39:08.903Z,101151
2017-07-06T22:41:37.439Z,101147
2017-07-06T22:44:07.029Z,101152
2017-07-06T22:46:35.563Z,101155
2017-07-06T22:49:04.550Z,101156
2017-07-06T22:51:33.151Z,101143
2017-07-06T22:54:01.683Z,101148
2017-07-06T22:56:30.218Z,101140
2017-07-06T22:58:58.880Z,101140
2017-07-06T23:01:27.467Z,101130
2017-07-06T23:03:56.055Z,101122
2017-07-06T23:06:24.623Z,101124
2017-07-06T23:08:53.159Z,101120
2017-07-06T23:11:21.717Z,101113
2017-07-06T23:13:50.648Z,101116
2017-07-06T23:16:19.167Z,101117
2017-07-06T23:18:47.727Z,101113
2017-07-06T23:21:16.444Z,101115
2017-07-06T23:23:45.021Z,101111
2017-07-06T23:26:13.619Z,101104
2017-07-06T23:28:42.123Z,101089
2017-07-06T23:31:10.772Z,101084
2017-07-06T23:33:39.310Z,101083
2017-07-06T23:36:08.147Z,101091
2017-07-06T23:38:36.737Z,101081
2017-07-06T23:41:05.243Z,101087
2017-07-06T23:43:33.791Z,101074
2017-07-06T23:46:02.371Z,101079
2017-07-06T23:48:31.419Z,101078
2017-07-06T23:51:00.509Z,101076
2017-07-06T23:53:29.047Z,101073
2017-07-06T23:55:58.067Z,101063
2017-07-06T23:58:26.621Z,101061
